createdAt,value
2023-03-18T00:02:14.325Z,17.87
2023-03-18T00:05:36.375Z,20.40
2023-03-18T00:08:58.969Z,15.17
2023-03-18T00:12:23.720Z,16.73
2023-03-18T00:15:50.625Z,17.37
2023-03-18T00:19:13.173Z,18.03
2023-03-18T00:22:36.669Z,17.67
2023-03-18T00:26:02.426Z,16.07
2023-03-18T00:29:25.088Z,13.47
2023-03-18T00:32:46.783Z,20.93
2023-03-18T00:36:10.354Z,13.73
2023-03-18T00:39:33.205Z,16.80
2023-03-18T00:43:01.757Z,16.93
2023-03-18T00:46:26.100Z,16.63
2023-03-18T00:49:48.320Z,16.60
2023-03-18T00:53:13.000Z,14.50
2023-03-18T00:56:40.398Z,12.97
2023-03-18T01:00:02.629Z,17.17
2023-03-18T01:03:26.254Z,16.90
2023-03-18T01:06:47.845Z,17.80
2023-03-18T01:10:13.566Z,14.93
2023-03-18T01:13:36.131Z,13.30
2023-03-18T01:17:02.888Z,16.50
2023-03-18T01:20:25.518Z,15.10
2023-03-18T01:23:47.196Z,13.47
2023-03-18T01:27:09.063Z,14.67
2023-03-18T01:30:34.907Z,13.80
2023-03-18T01:33:56.519Z,10.33
2023-03-18T01:37:19.758Z,15.70
2023-03-18T01:40:41.538Z,14.10
2023-03-18T01:44:04.476Z,10.60
2023-03-18T01:47:26.144Z,14.63
2023-03-18T01:51:00.878Z,14.57
2023-03-18T01:54:24.823Z,13.47
2023-03-18T01:57:48.593Z,14.27
2023-03-18T02:01:18.042Z,78.40
2023-03-18T02:04:47.613Z,30.63
2023-03-18T02:08:09.797Z,13.97
2023-03-18T02:11:38.855Z,16.97
2023-03-18T02:15:11.498Z,10.37
2023-03-18T02:18:52.068Z,13.03
2023-03-18T02:22:25.806Z,12.23
2023-03-18T02:26:48.174Z,11.70
2023-03-18T02:30:33.167Z,12.57
2023-03-18T02:33:56.391Z,13.10
2023-03-18T02:37:17.972Z,14.23
2023-03-18T02:40:41.984Z,9.57
2023-03-18T02:44:03.931Z,13.40
2023-03-18T02:47:28.507Z,11.43
2023-03-18T02:50:53.973Z,14.00
2023-03-18T02:54:22.517Z,13.03
2023-03-18T02:57:44.097Z,11.23
2023-03-18T03:01:08.806Z,12.63
2023-03-18T03:04:30.612Z,12.53
2023-03-18T03:07:52.634Z,11.07
2023-03-18T03:11:14.808Z,13.20
2023-03-18T03:14:39.491Z,11.90
2023-03-18T03:18:01.189Z,12.03
2023-03-18T03:21:25.586Z,14.30
2023-03-18T03:24:47.643Z,16.67
2023-03-18T03:28:09.351Z,16.10
2023-03-18T03:31:33.183Z,11.60
2023-03-18T03:34:57.811Z,12.67
2023-03-18T03:38:23.049Z,17.97
2023-03-18T03:41:44.694Z,41.57
2023-03-18T03:45:07.608Z,18.23
2023-03-18T03:48:29.282Z,19.10
2023-03-18T03:51:51.150Z,15.20
2023-03-18T03:55:15.146Z,23.10
2023-03-18T03:58:39.601Z,18.53
2023-03-18T04:02:03.436Z,25.10
2023-03-18T04:05:25.788Z,25.50
2023-03-18T04:08:47.510Z,19.07
2023-03-18T04:12:09.763Z,63.67
2023-03-18T04:15:32.195Z,40.30
2023-03-18T04:18:53.786Z,21.80
2023-03-18T04:22:16.872Z,18.80
2023-03-18T04:25:38.457Z,23.23
2023-03-18T04:29:03.700Z,21.10
2023-03-18T04:32:30.622Z,22.20
2023-03-18T04:35:52.763Z,23.13
2023-03-18T04:39:14.515Z,19.97
2023-03-18T04:42:36.185Z,24.50
2023-03-18T04:45:58.002Z,25.37
2023-03-18T04:49:20.483Z,20.67
2023-03-18T04:52:45.144Z,19.30
2023-03-18T04:56:10.017Z,19.83
2023-03-18T04:59:31.625Z,18.37
2023-03-18T05:02:57.960Z,17.37
2023-03-18T05:06:25.646Z,17.93
2023-03-18T05:09:47.324Z,18.67
2023-03-18T05:13:11.611Z,20.37
2023-03-18T05:16:36.587Z,20.70
2023-03-18T05:19:58.278Z,18.27
2023-03-18T05:23:20.248Z,26.90
2023-03-18T05:26:44.671Z,37.93
2023-03-18T05:30:07.188Z,18.83
2023-03-18T05:33:28.830Z,16.57
2023-03-18T05:36:51.014Z,18.67
2023-03-18T05:40:12.878Z,16.07
2023-03-18T05:43:36.817Z,20.20
2023-03-18T05:46:58.762Z,17.23
2023-03-18T05:50:33.240Z,16.60
2023-03-18T05:53:54.849Z,18.60
2023-03-18T05:57:16.907Z,17.30
2023-03-18T06:00:41.564Z,18.10
2023-03-18T06:04:06.205Z,16.87
2023-03-18T06:07:28.050Z,17.87
2023-03-18T06:10:49.743Z,19.03
2023-03-18T06:14:12.874Z,19.90
2023-03-18T06:17:35.640Z,19.50
2023-03-18T06:20:57.362Z,15.87
2023-03-18T06:24:19.858Z,11.80
2023-03-18T06:27:42.040Z,14.10
2023-03-18T06:31:05.987Z,12.23
2023-03-18T06:34:27.613Z,10.73
2023-03-18T06:37:49.234Z,9.97
2023-03-18T06:41:11.918Z,12.53
2023-03-18T06:44:33.551Z,11.00
2023-03-18T06:47:55.292Z,10.13
2023-03-18T06:51:16.963Z,10.87
2023-03-18T06:54:38.749Z,10.90
2023-03-18T06:58:00.588Z,12.30
2023-03-18T07:01:27.000Z,9.80
2023-03-18T07:04:48.733Z,10.70
2023-03-18T07:08:13.397Z,10.93
2023-03-18T07:11:35.075Z,9.83
2023-03-18T07:14:56.670Z,13.93
2023-03-18T07:18:18.890Z,8.67
2023-03-18T07:21:42.847Z,11.00
2023-03-18T07:25:07.956Z,9.40
2023-03-18T07:28:31.945Z,9.43
2023-03-18T07:31:53.740Z,10.60
2023-03-18T07:35:15.809Z,10.98
2023-03-18T07:38:37.466Z,11.40
2023-03-18T07:41:59.346Z,10.23
2023-03-18T07:45:23.974Z,10.20
2023-03-18T07:48:46.649Z,10.38
2023-03-18T07:52:09.162Z,9.48
2023-03-18T07:55:30.965Z,10.45
2023-03-18T07:58:53.149Z,11.27
2023-03-18T08:02:15.928Z,7.32
2023-03-18T08:05:37.705Z,7.82
2023-03-18T08:09:02.099Z,7.90
2023-03-18T08:12:23.698Z,9.77
2023-03-18T08:15:48.321Z,8.45
2023-03-18T08:19:10.544Z,10.07
2023-03-18T08:22:34.799Z,8.32
2023-03-18T08:25:57.040Z,7.70
2023-03-18T08:29:21.391Z,6.43
2023-03-18T08:32:46.494Z,7.75
2023-03-18T08:36:08.726Z,6.57
2023-03-18T08:39:30.497Z,9.18
2023-03-18T08:42:52.381Z,6.07
2023-03-18T08:46:14.775Z,6.63
2023-03-18T08:49:39.419Z,6.05
2023-03-18T08:53:01.687Z,7.93
2023-03-18T08:56:23.374Z,4.45
2023-03-18T08:59:44.971Z,9.27
2023-03-18T09:03:06.657Z,6.38
2023-03-18T09:06:29.736Z,10.85
2023-03-18T09:09:54.110Z,10.00
2023-03-18T09:13:15.784Z,5.30
2023-03-18T09:16:37.789Z,8.00
2023-03-18T09:20:00.047Z,7.38
2023-03-18T09:23:22.586Z,8.73
2023-03-18T09:26:48.007Z,7.65
2023-03-18T09:30:10.262Z,8.25
2023-03-18T09:33:37.027Z,7.35
2023-03-18T09:37:00.735Z,6.93
2023-03-18T09:40:31.422Z,5.53
2023-03-18T09:44:14.645Z,6.05
2023-03-18T09:47:51.723Z,5.07
2023-03-18T09:51:35.159Z,6.43
2023-03-18T09:55:18.074Z,7.53
2023-03-18T09:58:50.297Z,5.85
2023-03-18T10:02:33.833Z,6.32
2023-03-18T10:06:21.840Z,8.88
2023-03-18T10:09:49.482Z,7.30
2023-03-18T10:13:32.041Z,7.07
2023-03-18T10:17:17.986Z,6.32
2023-03-18T10:20:51.629Z,9.75
2023-03-18T10:24:36.304Z,20.65
2023-03-18T10:28:23.355Z,7.80
2023-03-18T10:32:02.289Z,8.18
2023-03-18T10:35:53.197Z,7.38
2023-03-18T10:39:22.783Z,7.22
2023-03-18T10:42:45.542Z,7.70
2023-03-18T10:46:11.891Z,6.15
2023-03-18T10:49:37.208Z,7.38
2023-03-18T10:53:23.374Z,6.15
2023-03-18T10:56:45.229Z,7.20
2023-03-18T11:00:31.121Z,15.60
2023-03-18T11:03:59.137Z,6.30
2023-03-18T11:07:28.831Z,8.85
2023-03-18T11:10:52.708Z,5.18
2023-03-18T11:14:21.075Z,7.00
2023-03-18T11:17:43.373Z,8.00
2023-03-18T11:21:13.059Z,6.50
2023-03-18T11:24:44.740Z,7.95
2023-03-18T11:28:21.424Z,6.22
2023-03-18T11:31:52.249Z,6.97
2023-03-18T11:35:21.009Z,6.90
2023-03-18T11:38:55.714Z,6.40
2023-03-18T11:42:22.644Z,6.85
2023-03-18T11:46:04.316Z,6.57
2023-03-18T11:49:28.593Z,7.03
2023-03-18T11:53:05.172Z,10.27
2023-03-18T11:56:33.765Z,7.03
2023-03-18T12:00:17.746Z,7.38
2023-03-18T12:03:57.967Z,7.25
2023-03-18T12:07:50.112Z,8.77
2023-03-18T12:11:47.137Z,8.07
2023-03-18T12:15:11.732Z,8.35
2023-03-18T12:18:41.177Z,6.75
2023-03-18T12:22:25.910Z,8.20
2023-03-18T12:26:06.346Z,6.80
2023-03-18T12:29:51.223Z,7.45
2023-03-18T12:33:14.879Z,9.85
2023-03-18T12:36:54.642Z,6.93
2023-03-18T12:40:41.656Z,9.60
2023-03-18T12:44:26.282Z,7.60
2023-03-18T12:47:52.419Z,7.22
2023-03-18T12:51:22.881Z,15.27
2023-03-18T12:54:59.029Z,6.97
2023-03-18T12:58:27.772Z,7.43
2023-03-18T13:01:59.605Z,9.52
2023-03-18T13:05:29.361Z,13.73
2023-03-18T13:09:05.620Z,10.85
2023-03-18T13:12:33.415Z,7.15
2023-03-18T13:15:55.915Z,8.65
2023-03-18T13:19:19.718Z,8.93
2023-03-18T13:22:46.108Z,7.50
2023-03-18T13:26:26.620Z,7.25
2023-03-18T13:30:06.182Z,8.52
2023-03-18T13:33:47.492Z,8.45
2023-03-18T13:37:37.340Z,7.93
2023-03-18T13:41:40.528Z,9.05
2023-03-18T13:45:30.752Z,5.47
2023-03-18T13:49:01.199Z,9.32
2023-03-18T13:52:43.927Z,6.57
2023-03-18T13:56:07.098Z,5.78
2023-03-18T13:59:34.571Z,7.10
2023-03-18T14:03:31.522Z,5.67
2023-03-18T14:06:56.087Z,18.23
2023-03-18T14:10:20.638Z,5.20
2023-03-18T14:14:00.766Z,5.18
2023-03-18T14:17:41.427Z,5.28
2023-03-18T14:21:22.517Z,6.50
2023-03-18T14:25:08.293Z,5.90
2023-03-18T14:28:37.270Z,5.18
2023-03-18T14:32:08.373Z,4.13
2023-03-18T14:35:34.866Z,4.05
2023-03-18T14:39:07.122Z,5.57
2023-03-18T14:43:01.310Z,4.80
2023-03-18T14:46:31.324Z,5.53
2023-03-18T14:50:19.316Z,4.30
2023-03-18T14:53:52.947Z,4.30
2023-03-18T14:57:16.275Z,5.22
2023-03-18T15:00:37.990Z,6.72
2023-03-18T15:04:01.055Z,5.97
2023-03-18T15:07:36.053Z,5.43
2023-03-18T15:10:59.169Z,3.90
2023-03-18T15:14:29.988Z,5.10
2023-03-18T15:17:52.598Z,6.78
2023-03-18T15:21:21.484Z,6.05
2023-03-18T15:24:43.502Z,5.15
2023-03-18T15:28:06.207Z,6.47
2023-03-18T15:31:38.254Z,4.30
2023-03-18T15:35:23.068Z,6.07
2023-03-18T15:38:49.391Z,6.38
2023-03-18T15:42:13.735Z,4.53
2023-03-18T15:45:36.545Z,5.32
2023-03-18T15:49:02.298Z,4.97
2023-03-18T15:52:39.455Z,6.10
2023-03-18T15:56:13.880Z,3.60
2023-03-18T15:59:40.907Z,4.65
2023-03-18T16:03:02.559Z,5.20
2023-03-18T16:06:24.579Z,4.20
2023-03-18T16:09:51.720Z,6.40
2023-03-18T16:13:21.694Z,5.22
2023-03-18T16:16:43.370Z,7.68
2023-03-18T16:20:17.697Z,4.95
2023-03-18T16:23:40.894Z,7.68
2023-03-18T16:27:05.179Z,6.13
2023-03-18T16:30:31.807Z,6.38
2023-03-18T16:33:56.500Z,7.03
2023-03-18T16:37:26.989Z,3.53
2023-03-18T16:40:53.825Z,3.22
2023-03-18T16:44:18.683Z,4.93
2023-03-18T16:47:43.321Z,7.78
2023-03-18T16:51:05.229Z,13.20
2023-03-18T16:54:37.082Z,12.77
2023-03-18T16:58:02.528Z,6.20
2023-03-18T17:01:28.129Z,6.40
2023-03-18T17:04:54.762Z,8.65
2023-03-18T17:08:19.930Z,9.05
2023-03-18T17:11:48.965Z,12.13
2023-03-18T17:15:13.162Z,10.57
2023-03-18T17:18:34.736Z,12.15
2023-03-18T17:21:56.329Z,14.02
2023-03-18T17:25:17.891Z,6.80
2023-03-18T17:28:43.689Z,11.30
2023-03-18T17:32:09.882Z,14.63
2023-03-18T17:35:33.772Z,10.05
2023-03-18T17:39:00.116Z,9.85
2023-03-18T17:42:30.579Z,15.23
2023-03-18T17:45:55.219Z,10.20
2023-03-18T17:49:21.884Z,11.07
2023-03-18T17:52:43.547Z,9.35
2023-03-18T17:56:08.718Z,9.63
2023-03-18T17:59:33.158Z,8.90
2023-03-18T18:02:54.976Z,10.50
2023-03-18T18:06:21.293Z,8.60
2023-03-18T18:09:42.878Z,8.68
2023-03-18T18:13:13.700Z,9.90
2023-03-18T18:16:36.058Z,10.45
2023-03-18T18:19:57.680Z,13.82
2023-03-18T18:23:45.529Z,12.27
2023-03-18T18:27:11.355Z,12.55
2023-03-18T18:30:35.787Z,15.65
2023-03-18T18:33:57.418Z,26.00
2023-03-18T18:37:19.012Z,25.65
2023-03-18T18:40:40.622Z,15.50
2023-03-18T18:44:05.187Z,12.80
2023-03-18T18:47:27.185Z,13.50
2023-03-18T18:50:48.772Z,20.15
2023-03-18T18:54:10.371Z,14.15
2023-03-18T18:57:39.659Z,16.48
2023-03-18T19:01:01.456Z,16.65
2023-03-18T19:04:23.855Z,15.48
2023-03-18T19:07:47.871Z,17.90
2023-03-18T19:11:10.135Z,16.70
2023-03-18T19:14:37.038Z,17.92
2023-03-18T19:18:01.017Z,19.90
2023-03-18T19:21:23.621Z,29.45
2023-03-18T19:24:49.458Z,36.03
2023-03-18T19:28:20.903Z,17.83
2023-03-18T19:31:43.120Z,16.60
2023-03-18T19:35:05.595Z,14.15
2023-03-18T19:38:29.932Z,16.23
2023-03-18T19:41:51.872Z,13.65
2023-03-18T19:45:14.950Z,18.00
2023-03-18T19:48:39.262Z,15.23
2023-03-18T19:52:14.414Z,12.85
2023-03-18T19:55:36.266Z,14.95
2023-03-18T19:58:59.222Z,14.90
2023-03-18T20:02:32.143Z,15.15
2023-03-18T20:05:53.738Z,13.77
2023-03-18T20:09:15.489Z,12.55
2023-03-18T20:12:42.412Z,13.43
2023-03-18T20:16:10.872Z,13.77
2023-03-18T20:19:34.729Z,11.85
2023-03-18T20:23:07.807Z,13.60
2023-03-18T20:26:32.129Z,13.60
2023-03-18T20:29:58.460Z,14.10
2023-03-18T20:33:21.183Z,10.65
2023-03-18T20:36:42.903Z,10.48
2023-03-18T20:40:07.273Z,11.32
2023-03-18T20:43:29.751Z,11.68
2023-03-18T20:46:53.716Z,10.65
2023-03-18T20:50:24.244Z,13.88
2023-03-18T20:53:45.956Z,11.55
2023-03-18T20:57:11.799Z,12.35
2023-03-18T21:00:34.143Z,15.30
2023-03-18T21:04:02.031Z,14.18
2023-03-18T21:07:24.078Z,14.15
2023-03-18T21:10:48.075Z,14.02
2023-03-18T21:14:15.424Z,12.98
2023-03-18T21:17:39.123Z,12.75
2023-03-18T21:21:01.389Z,13.20
2023-03-18T21:24:29.571Z,14.43
2023-03-18T21:27:51.644Z,16.63
2023-03-18T21:31:42.731Z,14.23
2023-03-18T21:35:05.133Z,14.95
2023-03-18T21:38:34.877Z,17.60
2023-03-18T21:41:57.038Z,13.27
2023-03-18T21:45:22.848Z,11.97
2023-03-18T21:48:45.178Z,17.58
2023-03-18T21:52:08.135Z,14.60
2023-03-18T21:55:29.765Z,14.23
2023-03-18T21:58:51.537Z,14.23
2023-03-18T22:02:28.597Z,14.13
2023-03-18T22:05:52.248Z,15.13
2023-03-18T22:09:16.353Z,14.63
2023-03-18T22:12:38.051Z,15.25
2023-03-18T22:15:59.680Z,16.90
2023-03-18T22:19:23.622Z,16.95
2023-03-18T22:22:45.254Z,13.98
2023-03-18T22:26:06.830Z,17.42
2023-03-18T22:29:31.145Z,18.52
2023-03-18T22:32:53.512Z,15.27
2023-03-18T22:36:17.769Z,15.63
2023-03-18T22:39:43.084Z,18.35
2023-03-18T22:43:18.260Z,16.15
2023-03-18T22:46:39.960Z,18.15
2023-03-18T22:50:01.777Z,20.42
2023-03-18T22:53:29.181Z,13.52
2023-03-18T22:56:50.785Z,14.60
2023-03-18T23:00:22.051Z,17.20
2023-03-18T23:03:47.907Z,16.00
2023-03-18T23:07:25.493Z,13.98
2023-03-18T23:10:48.303Z,13.63
2023-03-18T23:14:11.502Z,13.40
2023-03-18T23:17:33.366Z,14.23
2023-03-18T23:20:55.249Z,18.13
2023-03-18T23:24:19.122Z,15.47
2023-03-18T23:27:43.653Z,17.17
2023-03-18T23:31:09.390Z,15.35
2023-03-18T23:34:31.137Z,15.47
2023-03-18T23:37:54.941Z,15.00
2023-03-18T23:41:16.490Z,14.63
2023-03-18T23:44:39.010Z,14.50
2023-03-18T23:48:00.631Z,14.50
2023-03-18T23:51:25.205Z,13.37
2023-03-18T23:54:46.915Z,15.20
2023-03-18T23:58:10.882Z,17.97
